sensor_id;sensor_type;location;lat;lon;timestamp;temperature;humidity
11597;DHT22;5854;48.072;16.286;2023-09-30T00:00:49;18.20;52.50
11597;DHT22;5854;48.072;16.286;2023-09-30T00:03:17;18.30;52.00
11597;DHT22;5854;48.072;16.286;2023-09-30T00:05:44;18.20;53.40
11597;DHT22;5854;48.072;16.286;2023-09-30T00:08:11;18.20;52.40
11597;DHT22;5854;48.072;16.286;2023-09-30T00:10:38;18.10;52.40
11597;DHT22;5854;48.072;16.286;2023-09-30T00:13:05;18.20;53.60
11597;DHT22;5854;48.072;16.286;2023-09-30T00:15:35;18.10;53.40
11597;DHT22;5854;48.072;16.286;2023-09-30T00:18:03;18.20;53.00
11597;DHT22;5854;48.072;16.286;2023-09-30T00:20:30;18.10;52.40
11597;DHT22;5854;48.072;16.286;2023-09-30T00:22:58;18.10;52.70
11597;DHT22;5854;48.072;16.286;2023-09-30T00:25:25;18.20;52.10
11597;DHT22;5854;48.072;16.286;2023-09-30T00:27:53;18.20;52.40
11597;DHT22;5854;48.072;16.286;2023-09-30T00:30:20;18.10;52.40
11597;DHT22;5854;48.072;16.286;2023-09-30T00:32:49;18.20;52.00
11597;DHT22;5854;48.072;16.286;2023-09-30T00:35:17;18.20;51.90
11597;DHT22;5854;48.072;16.286;2023-09-30T00:37:44;18.10;53.00
11597;DHT22;5854;48.072;16.286;2023-09-30T00:40:12;18.10;52.20
11597;DHT22;5854;48.072;16.286;2023-09-30T00:42:39;18.10;52.50
11597;DHT22;5854;48.072;16.286;2023-09-30T00:45:08;18.00;52.30
11597;DHT22;5854;48.072;16.286;2023-09-30T00:47:36;18.10;52.40
11597;DHT22;5854;48.072;16.286;2023-09-30T00:50:06;18.10;52.20
11597;DHT22;5854;48.072;16.286;2023-09-30T00:52:36;18.00;52.70
11597;DHT22;5854;48.072;16.286;2023-09-30T00:55:06;18.00;53.40
11597;DHT22;5854;48.072;16.286;2023-09-30T00:57:37;18.00;52.80
11597;DHT22;5854;48.072;16.286;2023-09-30T01:00:06;17.90;53.30
11597;DHT22;5854;48.072;16.286;2023-09-30T01:02:38;17.80;54.00
11597;DHT22;5854;48.072;16.286;2023-09-30T01:05:08;17.90;53.00
11597;DHT22;5854;48.072;16.286;2023-09-30T01:07:35;17.90;52.80
11597;DHT22;5854;48.072;16.286;2023-09-30T01:10:03;17.90;52.80
11597;DHT22;5854;48.072;16.286;2023-09-30T01:12:30;17.90;53.60
11597;DHT22;5854;48.072;16.286;2023-09-30T01:14:57;17.80;53.90
11597;DHT22;5854;48.072;16.286;2023-09-30T01:17:25;17.60;53.60
11597;DHT22;5854;48.072;16.286;2023-09-30T01:19:55;17.70;53.60
11597;DHT22;5854;48.072;16.286;2023-09-30T01:22:25;17.60;54.80
11597;DHT22;5854;48.072;16.286;2023-09-30T01:24:55;17.50;56.50
11597;DHT22;5854;48.072;16.286;2023-09-30T01:27:22;17.70;56.40
11597;DHT22;5854;48.072;16.286;2023-09-30T01:29:51;17.60;54.60
11597;DHT22;5854;48.072;16.286;2023-09-30T01:32:18;17.50;54.90
11597;DHT22;5854;48.072;16.286;2023-09-30T01:34:45;17.60;54.80
11597;DHT22;5854;48.072;16.286;2023-09-30T01:37:14;17.70;53.90
11597;DHT22;5854;48.072;16.286;2023-09-30T01:39:43;17.70;54.70
11597;DHT22;5854;48.072;16.286;2023-09-30T01:42:10;17.70;55.40
11597;DHT22;5854;48.072;16.286;2023-09-30T01:44:38;17.70;54.90
11597;DHT22;5854;48.072;16.286;2023-09-30T01:47:05;17.80;53.20
11597;DHT22;5854;48.072;16.286;2023-09-30T01:49:32;17.80;53.60
11597;DHT22;5854;48.072;16.286;2023-09-30T01:51:59;17.80;55.20
11597;DHT22;5854;48.072;16.286;2023-09-30T01:54:26;17.90;55.10
11597;DHT22;5854;48.072;16.286;2023-09-30T01:56:55;17.80;52.80
11597;DHT22;5854;48.072;16.286;2023-09-30T01:59:22;17.90;54.30
11597;DHT22;5854;48.072;16.286;2023-09-30T02:01:49;17.70;54.80
11597;DHT22;5854;48.072;16.286;2023-09-30T02:04:16;17.70;56.70
11597;DHT22;5854;48.072;16.286;2023-09-30T02:06:43;17.70;53.90
11597;DHT22;5854;48.072;16.286;2023-09-30T02:09:11;17.70;54.50
11597;DHT22;5854;48.072;16.286;2023-09-30T02:11:38;17.80;53.50
11597;DHT22;5854;48.072;16.286;2023-09-30T02:14:08;17.70;54.40
11597;DHT22;5854;48.072;16.286;2023-09-30T02:16:38;17.70;53.20
11597;DHT22;5854;48.072;16.286;2023-09-30T02:19:05;17.80;53.80
11597;DHT22;5854;48.072;16.286;2023-09-30T02:21:32;17.70;53.70
11597;DHT22;5854;48.072;16.286;2023-09-30T02:23:59;17.70;54.50
11597;DHT22;5854;48.072;16.286;2023-09-30T02:26:26;17.70;54.40
11597;DHT22;5854;48.072;16.286;2023-09-30T02:28:54;17.70;56.20
11597;DHT22;5854;48.072;16.286;2023-09-30T02:31:24;17.70;53.50
11597;DHT22;5854;48.072;16.286;2023-09-30T02:33:51;17.70;53.60
11597;DHT22;5854;48.072;16.286;2023-09-30T02:36:18;17.60;54.70
11597;DHT22;5854;48.072;16.286;2023-09-30T02:38:45;17.60;57.30
11597;DHT22;5854;48.072;16.286;2023-09-30T02:41:12;17.70;57.00
11597;DHT22;5854;48.072;16.286;2023-09-30T02:43:41;18.00;54.50
11597;DHT22;5854;48.072;16.286;2023-09-30T02:46:09;18.00;55.50
11597;DHT22;5854;48.072;16.286;2023-09-30T02:48:37;18.00;53.30
11597;DHT22;5854;48.072;16.286;2023-09-30T02:51:08;18.20;53.40
11597;DHT22;5854;48.072;16.286;2023-09-30T02:53:36;18.50;57.30
11597;DHT22;5854;48.072;16.286;2023-09-30T02:56:03;18.60;53.30
11597;DHT22;5854;48.072;16.286;2023-09-30T02:58:31;18.70;55.40
11597;DHT22;5854;48.072;16.286;2023-09-30T03:00:58;18.70;53.60
11597;DHT22;5854;48.072;16.286;2023-09-30T03:03:25;18.70;52.40
11597;DHT22;5854;48.072;16.286;2023-09-30T03:05:54;18.70;51.60
11597;DHT22;5854;48.072;16.286;2023-09-30T03:08:23;18.90;59.40
11597;DHT22;5854;48.072;16.286;2023-09-30T03:10:50;18.80;52.00
11597;DHT22;5854;48.072;16.286;2023-09-30T03:13:18;18.90;52.20
11597;DHT22;5854;48.072;16.286;2023-09-30T03:15:47;18.90;60.50
11597;DHT22;5854;48.072;16.286;2023-09-30T03:18:15;18.90;57.40
11597;DHT22;5854;48.072;16.286;2023-09-30T03:20:47;18.90;55.30
11597;DHT22;5854;48.072;16.286;2023-09-30T03:23:17;18.90;55.80
11597;DHT22;5854;48.072;16.286;2023-09-30T03:25:45;18.80;53.10
11597;DHT22;5854;48.072;16.286;2023-09-30T03:28:12;18.90;52.80
11597;DHT22;5854;48.072;16.286;2023-09-30T03:30:40;18.90;58.50
11597;DHT22;5854;48.072;16.286;2023-09-30T03:33:07;18.90;58.00
11597;DHT22;5854;48.072;16.286;2023-09-30T03:35:34;18.90;55.30
11597;DHT22;5854;48.072;16.286;2023-09-30T03:38:02;18.90;57.10
11597;DHT22;5854;48.072;16.286;2023-09-30T03:40:32;18.90;53.10
11597;DHT22;5854;48.072;16.286;2023-09-30T03:43:00;18.90;57.10
11597;DHT22;5854;48.072;16.286;2023-09-30T03:45:27;18.90;53.00
11597;DHT22;5854;48.072;16.286;2023-09-30T03:47:54;19.00;54.90
11597;DHT22;5854;48.072;16.286;2023-09-30T03:50:22;19.00;53.90
11597;DHT22;5854;48.072;16.286;2023-09-30T03:52:50;19.00;53.60
11597;DHT22;5854;48.072;16.286;2023-09-30T03:55:17;19.10;63.80
11597;DHT22;5854;48.072;16.286;2023-09-30T03:57:47;19.00;53.80
11597;DHT22;5854;48.072;16.286;2023-09-30T04:00:16;19.10;54.70
11597;DHT22;5854;48.072;16.286;2023-09-30T04:02:44;19.00;52.90
11597;DHT22;5854;48.072;16.286;2023-09-30T04:05:15;19.00;58.50
11597;DHT22;5854;48.072;16.286;2023-09-30T04:07:43;19.10;53.70
11597;DHT22;5854;48.072;16.286;2023-09-30T04:10:12;19.10;52.40
11597;DHT22;5854;48.072;16.286;2023-09-30T04:12:39;19.00;56.60
11597;DHT22;5854;48.072;16.286;2023-09-30T04:15:08;19.00;55.80
11597;DHT22;5854;48.072;16.286;2023-09-30T04:17:37;19.00;56.50
11597;DHT22;5854;48.072;16.286;2023-09-30T04:20:07;19.00;63.90
11597;DHT22;5854;48.072;16.286;2023-09-30T04:22:36;19.00;55.90
11597;DHT22;5854;48.072;16.286;2023-09-30T04:25:04;19.00;58.90
11597;DHT22;5854;48.072;16.286;2023-09-30T04:27:34;19.00;57.80
11597;DHT22;5854;48.072;16.286;2023-09-30T04:30:02;18.90;57.30
11597;DHT22;5854;48.072;16.286;2023-09-30T04:32:36;18.90;59.60
11597;DHT22;5854;48.072;16.286;2023-09-30T04:35:04;18.90;59.40
11597;DHT22;5854;48.072;16.286;2023-09-30T04:37:34;18.90;55.90
11597;DHT22;5854;48.072;16.286;2023-09-30T04:40:03;18.90;62.70
11597;DHT22;5854;48.072;16.286;2023-09-30T04:42:33;18.90;54.50
11597;DHT22;5854;48.072;16.286;2023-09-30T04:45:02;18.90;56.70
11597;DHT22;5854;48.072;16.286;2023-09-30T04:47:32;18.80;61.50
11597;DHT22;5854;48.072;16.286;2023-09-30T04:50:00;18.80;55.70
11597;DHT22;5854;48.072;16.286;2023-09-30T04:52:30;18.80;59.60
11597;DHT22;5854;48.072;16.286;2023-09-30T04:54:57;18.80;58.40
11597;DHT22;5854;48.072;16.286;2023-09-30T04:57:25;18.70;56.40
11597;DHT22;5854;48.072;16.286;2023-09-30T04:59:52;18.80;59.50
11597;DHT22;5854;48.072;16.286;2023-09-30T05:02:20;18.80;56.50
11597;DHT22;5854;48.072;16.286;2023-09-30T05:04:47;18.70;55.90
11597;DHT22;5854;48.072;16.286;2023-09-30T05:07:16;18.80;55.70
11597;DHT22;5854;48.072;16.286;2023-09-30T05:09:43;18.80;57.10
11597;DHT22;5854;48.072;16.286;2023-09-30T05:12:10;18.80;60.80
11597;DHT22;5854;48.072;16.286;2023-09-30T05:14:37;18.70;56.30
11597;DHT22;5854;48.072;16.286;2023-09-30T05:17:05;18.80;60.60
11597;DHT22;5854;48.072;16.286;2023-09-30T05:19:33;18.80;57.70
11597;DHT22;5854;48.072;16.286;2023-09-30T05:22:02;18.80;56.80
11597;DHT22;5854;48.072;16.286;2023-09-30T05:24:32;18.80;66.60
11597;DHT22;5854;48.072;16.286;2023-09-30T05:27:00;18.80;58.10
11597;DHT22;5854;48.072;16.286;2023-09-30T05:29:28;18.80;62.60
11597;DHT22;5854;48.072;16.286;2023-09-30T05:31:58;18.80;59.20
11597;DHT22;5854;48.072;16.286;2023-09-30T05:34:25;18.80;63.60
11597;DHT22;5854;48.072;16.286;2023-09-30T05:36:53;18.80;61.30
11597;DHT22;5854;48.072;16.286;2023-09-30T05:39:20;18.80;63.90
11597;DHT22;5854;48.072;16.286;2023-09-30T05:41:49;18.80;65.10
11597;DHT22;5854;48.072;16.286;2023-09-30T05:44:16;18.80;58.90
11597;DHT22;5854;48.072;16.286;2023-09-30T05:46:43;18.80;58.00
11597;DHT22;5854;48.072;16.286;2023-09-30T05:49:11;18.80;60.90
11597;DHT22;5854;48.072;16.286;2023-09-30T05:51:39;18.80;55.60
11597;DHT22;5854;48.072;16.286;2023-09-30T05:54:07;18.80;58.20
11597;DHT22;5854;48.072;16.286;2023-09-30T05:56:37;18.80;58.10
11597;DHT22;5854;48.072;16.286;2023-09-30T05:59:07;18.80;57.90
11597;DHT22;5854;48.072;16.286;2023-09-30T06:01:34;18.90;58.10
11597;DHT22;5854;48.072;16.286;2023-09-30T06:04:02;18.80;56.20
11597;DHT22;5854;48.072;16.286;2023-09-30T06:06:30;18.90;57.00
11597;DHT22;5854;48.072;16.286;2023-09-30T06:08:58;18.90;59.50
11597;DHT22;5854;48.072;16.286;2023-09-30T06:11:25;18.90;57.10
11597;DHT22;5854;48.072;16.286;2023-09-30T06:13:54;18.90;58.60
11597;DHT22;5854;48.072;16.286;2023-09-30T06:16:22;18.90;61.10
11597;DHT22;5854;48.072;16.286;2023-09-30T06:18:52;18.90;56.40
11597;DHT22;5854;48.072;16.286;2023-09-30T06:21:19;18.90;55.60
11597;DHT22;5854;48.072;16.286;2023-09-30T06:23:47;18.90;60.70
11597;DHT22;5854;48.072;16.286;2023-09-30T06:26:14;18.90;60.40
11597;DHT22;5854;48.072;16.286;2023-09-30T06:28:42;18.90;59.30
11597;DHT22;5854;48.072;16.286;2023-09-30T06:31:10;18.90;54.90
11597;DHT22;5854;48.072;16.286;2023-09-30T06:33:39;18.90;55.50
11597;DHT22;5854;48.072;16.286;2023-09-30T06:36:10;18.90;55.40
11597;DHT22;5854;48.072;16.286;2023-09-30T06:38:39;19.00;59.50
11597;DHT22;5854;48.072;16.286;2023-09-30T06:41:07;19.00;55.20
11597;DHT22;5854;48.072;16.286;2023-09-30T06:43:35;19.00;56.10
11597;DHT22;5854;48.072;16.286;2023-09-30T06:46:05;19.00;55.30
11597;DHT22;5854;48.072;16.286;2023-09-30T06:48:39;19.00;55.20
11597;DHT22;5854;48.072;16.286;2023-09-30T06:51:12;19.00;55.60
11597;DHT22;5854;48.072;16.286;2023-09-30T06:53:44;19.10;57.50
11597;DHT22;5854;48.072;16.286;2023-09-30T06:56:12;19.10;55.70
11597;DHT22;5854;48.072;16.286;2023-09-30T06:58:40;19.20;56.70
11597;DHT22;5854;48.072;16.286;2023-09-30T07:01:09;19.20;60.50
11597;DHT22;5854;48.072;16.286;2023-09-30T07:03:44;19.30;57.40
11597;DHT22;5854;48.072;16.286;2023-09-30T07:06:21;19.30;57.20
11597;DHT22;5854;48.072;16.286;2023-09-30T07:08:49;19.40;57.70
11597;DHT22;5854;48.072;16.286;2023-09-30T07:11:16;19.40;54.80
11597;DHT22;5854;48.072;16.286;2023-09-30T07:13:44;19.40;58.60
11597;DHT22;5854;48.072;16.286;2023-09-30T07:16:18;19.50;55.00
11597;DHT22;5854;48.072;16.286;2023-09-30T07:18:51;19.50;57.70
11597;DHT22;5854;48.072;16.286;2023-09-30T07:21:24;19.50;53.80
11597;DHT22;5854;48.072;16.286;2023-09-30T07:24:04;19.60;55.70
11597;DHT22;5854;48.072;16.286;2023-09-30T07:26:31;19.60;56.00
11597;DHT22;5854;48.072;16.286;2023-09-30T07:28:58;19.70;57.90
11597;DHT22;5854;48.072;16.286;2023-09-30T07:31:26;19.70;55.10
11597;DHT22;5854;48.072;16.286;2023-09-30T07:33:54;19.70;53.80
11597;DHT22;5854;48.072;16.286;2023-09-30T07:36:22;19.90;54.60
11597;DHT22;5854;48.072;16.286;2023-09-30T07:38:51;20.10;52.80
11597;DHT22;5854;48.072;16.286;2023-09-30T07:41:18;20.10;52.90
11597;DHT22;5854;48.072;16.286;2023-09-30T07:43:46;20.20;51.70
11597;DHT22;5854;48.072;16.286;2023-09-30T07:46:13;20.30;54.60
11597;DHT22;5854;48.072;16.286;2023-09-30T07:48:41;20.40;50.70
11597;DHT22;5854;48.072;16.286;2023-09-30T07:51:09;20.60;53.80
11597;DHT22;5854;48.072;16.286;2023-09-30T07:53:39;20.80;51.60
11597;DHT22;5854;48.072;16.286;2023-09-30T07:56:08;20.80;50.40
11597;DHT22;5854;48.072;16.286;2023-09-30T07:58:36;20.80;50.00
11597;DHT22;5854;48.072;16.286;2023-09-30T08:01:03;20.70;50.50
11597;DHT22;5854;48.072;16.286;2023-09-30T08:03:30;20.80;53.20
11597;DHT22;5854;48.072;16.286;2023-09-30T08:05:57;20.80;49.70
11597;DHT22;5854;48.072;16.286;2023-09-30T08:08:26;21.00;50.40
11597;DHT22;5854;48.072;16.286;2023-09-30T08:10:55;20.90;51.60
11597;DHT22;5854;48.072;16.286;2023-09-30T08:13:22;20.90;50.10
11597;DHT22;5854;48.072;16.286;2023-09-30T08:15:50;21.10;49.60
11597;DHT22;5854;48.072;16.286;2023-09-30T08:18:18;21.00;49.90
11597;DHT22;5854;48.072;16.286;2023-09-30T08:20:45;20.80;52.10
11597;DHT22;5854;48.072;16.286;2023-09-30T08:23:12;20.70;50.80
11597;DHT22;5854;48.072;16.286;2023-09-30T08:25:41;20.60;50.30
11597;DHT22;5854;48.072;16.286;2023-09-30T08:28:09;20.60;50.90
11597;DHT22;5854;48.072;16.286;2023-09-30T08:30:36;20.80;51.40
11597;DHT22;5854;48.072;16.286;2023-09-30T08:33:04;20.90;52.50
11597;DHT22;5854;48.072;16.286;2023-09-30T08:35:35;21.00;51.00
11597;DHT22;5854;48.072;16.286;2023-09-30T08:38:03;21.10;53.90
11597;DHT22;5854;48.072;16.286;2023-09-30T08:40:31;21.10;49.80
11597;DHT22;5854;48.072;16.286;2023-09-30T08:42:59;21.10;52.60
11597;DHT22;5854;48.072;16.286;2023-09-30T08:45:28;21.20;50.50
11597;DHT22;5854;48.072;16.286;2023-09-30T08:47:57;21.20;53.00
11597;DHT22;5854;48.072;16.286;2023-09-30T08:50:26;21.20;50.70
11597;DHT22;5854;48.072;16.286;2023-09-30T08:52:53;21.20;49.80
11597;DHT22;5854;48.072;16.286;2023-09-30T08:55:20;21.30;52.60
11597;DHT22;5854;48.072;16.286;2023-09-30T08:57:50;21.30;52.60
11597;DHT22;5854;48.072;16.286;2023-09-30T09:00:20;21.30;52.20
11597;DHT22;5854;48.072;16.286;2023-09-30T09:02:47;21.30;50.00
11597;DHT22;5854;48.072;16.286;2023-09-30T09:05:16;21.30;49.40
11597;DHT22;5854;48.072;16.286;2023-09-30T09:10:23;21.40;53.90
11597;DHT22;5854;48.072;16.286;2023-09-30T09:12:55;21.40;53.30
11597;DHT22;5854;48.072;16.286;2023-09-30T09:15:26;21.40;53.10
11597;DHT22;5854;48.072;16.286;2023-09-30T09:17:54;21.50;52.60
11597;DHT22;5854;48.072;16.286;2023-09-30T09:20:23;21.70;52.30
11597;DHT22;5854;48.072;16.286;2023-09-30T09:22:52;21.80;51.50
11597;DHT22;5854;48.072;16.286;2023-09-30T09:25:21;21.80;51.50
11597;DHT22;5854;48.072;16.286;2023-09-30T09:27:49;21.60;51.70
11597;DHT22;5854;48.072;16.286;2023-09-30T09:30:18;21.80;53.20
11597;DHT22;5854;48.072;16.286;2023-09-30T09:33:01;22.00;51.40
11597;DHT22;5854;48.072;16.286;2023-09-30T09:35:31;21.90;51.10
11597;DHT22;5854;48.072;16.286;2023-09-30T09:38:01;21.80;51.90
11597;DHT22;5854;48.072;16.286;2023-09-30T09:40:31;21.60;51.40
11597;DHT22;5854;48.072;16.286;2023-09-30T09:42:59;21.50;53.00
11597;DHT22;5854;48.072;16.286;2023-09-30T09:45:32;21.60;51.90
11597;DHT22;5854;48.072;16.286;2023-09-30T09:48:01;21.50;52.50
11597;DHT22;5854;48.072;16.286;2023-09-30T09:50:30;21.60;52.30
11597;DHT22;5854;48.072;16.286;2023-09-30T09:52:58;21.60;51.00
11597;DHT22;5854;48.072;16.286;2023-09-30T09:55:27;21.60;51.30
11597;DHT22;5854;48.072;16.286;2023-09-30T09:57:54;21.80;52.20
11597;DHT22;5854;48.072;16.286;2023-09-30T10:00:22;21.80;52.00
11597;DHT22;5854;48.072;16.286;2023-09-30T10:02:51;22.00;50.90
11597;DHT22;5854;48.072;16.286;2023-09-30T10:05:21;22.00;50.20
11597;DHT22;5854;48.072;16.286;2023-09-30T10:07:52;21.90;50.60
11597;DHT22;5854;48.072;16.286;2023-09-30T10:10:22;21.70;50.60
11597;DHT22;5854;48.072;16.286;2023-09-30T10:12:50;21.80;51.30
11597;DHT22;5854;48.072;16.286;2023-09-30T10:15:38;21.90;52.30
11597;DHT22;5854;48.072;16.286;2023-09-30T10:18:07;22.00;50.60
11597;DHT22;5854;48.072;16.286;2023-09-30T10:20:40;22.00;50.10
11597;DHT22;5854;48.072;16.286;2023-09-30T10:23:20;21.90;50.40
11597;DHT22;5854;48.072;16.286;2023-09-30T10:25:49;22.10;51.90
11597;DHT22;5854;48.072;16.286;2023-09-30T10:28:32;22.30;50.00
11597;DHT22;5854;48.072;16.286;2023-09-30T10:31:14;22.30;49.50
11597;DHT22;5854;48.072;16.286;2023-09-30T10:34:21;22.30;49.40
11597;DHT22;5854;48.072;16.286;2023-09-30T10:36:53;22.00;49.30
11597;DHT22;5854;48.072;16.286;2023-09-30T10:39:58;22.10;50.30
11597;DHT22;5854;48.072;16.286;2023-09-30T10:42:46;22.30;49.90
11597;DHT22;5854;48.072;16.286;2023-09-30T10:45:43;22.40;49.30
11597;DHT22;5854;48.072;16.286;2023-09-30T10:48:36;22.30;48.70
11597;DHT22;5854;48.072;16.286;2023-09-30T10:51:17;22.10;49.70
11597;DHT22;5854;48.072;16.286;2023-09-30T10:53:49;22.10;49.80
11597;DHT22;5854;48.072;16.286;2023-09-30T10:56:18;22.10;49.70
11597;DHT22;5854;48.072;16.286;2023-09-30T10:58:49;22.30;49.20
11597;DHT22;5854;48.072;16.286;2023-09-30T11:01:17;22.30;49.20
11597;DHT22;5854;48.072;16.286;2023-09-30T11:03:46;22.20;49.60
11597;DHT22;5854;48.072;16.286;2023-09-30T11:06:16;22.20;50.10
11597;DHT22;5854;48.072;16.286;2023-09-30T11:08:50;22.30;49.20
11597;DHT22;5854;48.072;16.286;2023-09-30T11:11:18;22.30;49.50
11597;DHT22;5854;48.072;16.286;2023-09-30T11:13:46;22.30;49.50
11597;DHT22;5854;48.072;16.286;2023-09-30T11:16:13;22.50;48.60
11597;DHT22;5854;48.072;16.286;2023-09-30T11:18:41;22.70;48.10
11597;DHT22;5854;48.072;16.286;2023-09-30T11:21:09;22.90;47.60
11597;DHT22;5854;48.072;16.286;2023-09-30T11:23:38;22.70;47.70
11597;DHT22;5854;48.072;16.286;2023-09-30T11:26:09;22.60;47.40
11597;DHT22;5854;48.072;16.286;2023-09-30T11:28:48;22.70;47.80
11597;DHT22;5854;48.072;16.286;2023-09-30T11:31:15;22.80;47.80
11597;DHT22;5854;48.072;16.286;2023-09-30T11:33:54;22.70;47.80
11597;DHT22;5854;48.072;16.286;2023-09-30T11:36:23;22.90;47.50
11597;DHT22;5854;48.072;16.286;2023-09-30T11:38:51;22.70;47.70
11597;DHT22;5854;48.072;16.286;2023-09-30T11:41:20;22.70;47.50
11597;DHT22;5854;48.072;16.286;2023-09-30T11:44:01;22.90;47.40
11597;DHT22;5854;48.072;16.286;2023-09-30T11:46:46;22.90;46.80
11597;DHT22;5854;48.072;16.286;2023-09-30T11:49:25;22.90;46.90
11597;DHT22;5854;48.072;16.286;2023-09-30T11:51:53;22.90;47.00
11597;DHT22;5854;48.072;16.286;2023-09-30T11:54:20;22.90;47.00
11597;DHT22;5854;48.072;16.286;2023-09-30T11:56:50;23.10;47.50
11597;DHT22;5854;48.072;16.286;2023-09-30T11:59:17;22.90;47.00
11597;DHT22;5854;48.072;16.286;2023-09-30T12:01:48;23.10;46.90
11597;DHT22;5854;48.072;16.286;2023-09-30T12:04:15;23.10;46.40
11597;DHT22;5854;48.072;16.286;2023-09-30T12:06:44;23.10;47.30
11597;DHT22;5854;48.072;16.286;2023-09-30T12:09:12;23.10;46.20
11597;DHT22;5854;48.072;16.286;2023-09-30T12:11:41;23.00;46.30
11597;DHT22;5854;48.072;16.286;2023-09-30T12:14:12;23.00;45.90
11597;DHT22;5854;48.072;16.286;2023-09-30T12:16:39;22.80;46.50
11597;DHT22;5854;48.072;16.286;2023-09-30T12:19:07;22.90;46.90
11597;DHT22;5854;48.072;16.286;2023-09-30T12:21:34;23.00;46.90
11597;DHT22;5854;48.072;16.286;2023-09-30T12:24:02;23.10;46.40
11597;DHT22;5854;48.072;16.286;2023-09-30T12:26:30;23.10;46.80
11597;DHT22;5854;48.072;16.286;2023-09-30T12:28:57;23.10;46.10
11597;DHT22;5854;48.072;16.286;2023-09-30T12:31:26;23.10;46.70
11597;DHT22;5854;48.072;16.286;2023-09-30T12:33:53;23.10;46.70
11597;DHT22;5854;48.072;16.286;2023-09-30T12:36:22;23.20;46.10
11597;DHT22;5854;48.072;16.286;2023-09-30T12:38:50;23.10;47.40
11597;DHT22;5854;48.072;16.286;2023-09-30T12:41:17;23.00;44.30
11597;DHT22;5854;48.072;16.286;2023-09-30T12:43:45;23.00;45.20
11597;DHT22;5854;48.072;16.286;2023-09-30T12:46:12;22.90;45.90
11597;DHT22;5854;48.072;16.286;2023-09-30T12:48:41;23.00;45.30
11597;DHT22;5854;48.072;16.286;2023-09-30T12:51:08;22.90;46.50
11597;DHT22;5854;48.072;16.286;2023-09-30T12:53:35;23.00;45.20
11597;DHT22;5854;48.072;16.286;2023-09-30T12:56:03;23.10;45.80
11597;DHT22;5854;48.072;16.286;2023-09-30T12:58:30;22.90;45.90
11597;DHT22;5854;48.072;16.286;2023-09-30T13:00:58;23.00;45.00
11597;DHT22;5854;48.072;16.286;2023-09-30T13:03:25;22.90;45.60
11597;DHT22;5854;48.072;16.286;2023-09-30T13:05:54;22.90;45.90
11597;DHT22;5854;48.072;16.286;2023-09-30T13:08:21;22.90;45.70
11597;DHT22;5854;48.072;16.286;2023-09-30T13:10:48;22.90;45.80
11597;DHT22;5854;48.072;16.286;2023-09-30T13:13:18;22.90;46.00
11597;DHT22;5854;48.072;16.286;2023-09-30T13:15:45;22.90;44.90
11597;DHT22;5854;48.072;16.286;2023-09-30T13:18:12;22.80;45.50
11597;DHT22;5854;48.072;16.286;2023-09-30T13:20:39;22.90;46.50
11597;DHT22;5854;48.072;16.286;2023-09-30T13:23:08;22.80;46.00
11597;DHT22;5854;48.072;16.286;2023-09-30T13:25:35;22.90;46.70
11597;DHT22;5854;48.072;16.286;2023-09-30T13:28:02;22.90;46.80
11597;DHT22;5854;48.072;16.286;2023-09-30T13:30:29;22.80;45.40
11597;DHT22;5854;48.072;16.286;2023-09-30T13:32:57;22.80;45.50
11597;DHT22;5854;48.072;16.286;2023-09-30T13:35:24;22.80;45.40
11597;DHT22;5854;48.072;16.286;2023-09-30T13:37:51;22.90;46.20
11597;DHT22;5854;48.072;16.286;2023-09-30T13:40:20;22.90;46.40
11597;DHT22;5854;48.072;16.286;2023-09-30T13:42:47;22.90;45.40
11597;DHT22;5854;48.072;16.286;2023-09-30T13:45:14;22.90;46.00
11597;DHT22;5854;48.072;16.286;2023-09-30T13:47:42;22.90;46.40
11597;DHT22;5854;48.072;16.286;2023-09-30T13:50:09;22.80;47.60
11597;DHT22;5854;48.072;16.286;2023-09-30T13:52:38;22.80;45.20
11597;DHT22;5854;48.072;16.286;2023-09-30T13:57:45;22.90;45.30
11597;DHT22;5854;48.072;16.286;2023-09-30T14:00:13;22.90;44.90
11597;DHT22;5854;48.072;16.286;2023-09-30T14:02:42;22.90;44.90
11597;DHT22;5854;48.072;16.286;2023-09-30T14:05:10;22.80;44.60
11597;DHT22;5854;48.072;16.286;2023-09-30T14:07:38;22.70;44.80
11597;DHT22;5854;48.072;16.286;2023-09-30T14:10:07;22.70;44.80
11597;DHT22;5854;48.072;16.286;2023-09-30T14:12:35;22.60;44.70
11597;DHT22;5854;48.072;16.286;2023-09-30T14:15:05;22.60;44.50
11597;DHT22;5854;48.072;16.286;2023-09-30T14:17:33;22.60;44.80
11597;DHT22;5854;48.072;16.286;2023-09-30T14:20:01;22.60;44.90
11597;DHT22;5854;48.072;16.286;2023-09-30T14:22:30;22.60;44.50
11597;DHT22;5854;48.072;16.286;2023-09-30T14:24:58;22.50;44.90
11597;DHT22;5854;48.072;16.286;2023-09-30T14:27:25;22.40;45.10
11597;DHT22;5854;48.072;16.286;2023-09-30T14:29:52;22.40;45.10
11597;DHT22;5854;48.072;16.286;2023-09-30T14:32:20;22.30;45.20
11597;DHT22;5854;48.072;16.286;2023-09-30T14:34:48;22.30;45.70
11597;DHT22;5854;48.072;16.286;2023-09-30T14:37:15;22.20;45.40
11597;DHT22;5854;48.072;16.286;2023-09-30T14:39:43;22.10;45.90
11597;DHT22;5854;48.072;16.286;2023-09-30T14:42:10;22.10;46.40
11597;DHT22;5854;48.072;16.286;2023-09-30T14:44:37;22.00;47.80
11597;DHT22;5854;48.072;16.286;2023-09-30T14:47:07;22.00;49.20
11597;DHT22;5854;48.072;16.286;2023-09-30T14:49:35;22.00;47.40
11597;DHT22;5854;48.072;16.286;2023-09-30T14:52:03;21.90;48.10
11597;DHT22;5854;48.072;16.286;2023-09-30T14:54:30;21.90;49.80
11597;DHT22;5854;48.072;16.286;2023-09-30T14:56:58;21.70;50.50
11597;DHT22;5854;48.072;16.286;2023-09-30T14:59:25;21.70;49.20
11597;DHT22;5854;48.072;16.286;2023-09-30T15:01:52;21.70;50.20
11597;DHT22;5854;48.072;16.286;2023-09-30T15:04:19;21.60;51.70
11597;DHT22;5854;48.072;16.286;2023-09-30T15:06:48;21.60;50.00
11597;DHT22;5854;48.072;16.286;2023-09-30T15:09:16;21.60;50.20
11597;DHT22;5854;48.072;16.286;2023-09-30T15:11:43;21.60;51.00
11597;DHT22;5854;48.072;16.286;2023-09-30T15:14:10;21.60;50.90
11597;DHT22;5854;48.072;16.286;2023-09-30T15:16:37;21.70;51.70
11597;DHT22;5854;48.072;16.286;2023-09-30T15:19:04;21.80;50.90
11597;DHT22;5854;48.072;16.286;2023-09-30T15:21:31;21.90;50.40
11597;DHT22;5854;48.072;16.286;2023-09-30T15:24:00;21.90;49.50
11597;DHT22;5854;48.072;16.286;2023-09-30T15:26:28;22.00;49.90
11597;DHT22;5854;48.072;16.286;2023-09-30T15:28:55;22.10;48.70
11597;DHT22;5854;48.072;16.286;2023-09-30T15:31:26;22.10;49.70
11597;DHT22;5854;48.072;16.286;2023-09-30T15:33:55;22.00;50.40
11597;DHT22;5854;48.072;16.286;2023-09-30T15:36:22;22.00;49.90
11597;DHT22;5854;48.072;16.286;2023-09-30T15:38:49;22.00;50.70
11597;DHT22;5854;48.072;16.286;2023-09-30T15:41:22;22.00;50.40
11597;DHT22;5854;48.072;16.286;2023-09-30T15:43:50;21.90;51.30
11597;DHT22;5854;48.072;16.286;2023-09-30T15:46:17;21.80;50.00